createdAt,value
2022-08-01T00:00:10.639Z,19.85
2022-08-01T00:01:10.628Z,19.87
2022-08-01T00:02:10.729Z,19.92
2022-08-01T00:03:10.679Z,19.93
2022-08-01T00:04:10.781Z,19.94
2022-08-01T00:05:10.613Z,19.96
2022-08-01T00:06:10.584Z,19.99
2022-08-01T00:07:10.614Z,20.04
2022-08-01T00:08:10.551Z,20.10
2022-08-01T00:09:10.686Z,20.14
2022-08-01T00:10:10.533Z,20.15
2022-08-01T00:11:10.494Z,20.14
2022-08-01T00:12:10.849Z,20.12
2022-08-01T00:13:10.654Z,20.10
2022-08-01T00:14:10.449Z,20.08
2022-08-01T00:15:10.498Z,20.08
2022-08-01T00:16:10.458Z,20.10
2022-08-01T00:17:10.428Z,20.04
2022-08-01T00:18:10.449Z,20.03
2022-08-01T00:19:10.389Z,20.02
2022-08-01T00:20:10.448Z,20.00
2022-08-01T00:21:10.430Z,19.99
2022-08-01T00:22:10.437Z,19.99
2022-08-01T00:23:10.329Z,20.02
2022-08-01T00:24:14.442Z,20.02
2022-08-01T00:25:10.314Z,20.02
2022-08-01T00:26:10.303Z,20.00
2022-08-01T00:27:10.364Z,19.97
2022-08-01T00:28:10.283Z,19.97
2022-08-01T00:29:13.244Z,19.97
2022-08-01T00:30:15.342Z,19.96
2022-08-01T00:31:10.304Z,19.99
2022-08-01T00:32:10.442Z,19.97
2022-08-01T00:33:10.383Z,19.96
2022-08-01T00:34:10.448Z,19.96
2022-08-01T00:35:10.312Z,19.94
2022-08-01T00:36:10.177Z,19.94
2022-08-01T00:37:10.277Z,19.94
2022-08-01T00:38:10.149Z,19.93
2022-08-01T00:39:10.180Z,19.92
2022-08-01T00:40:10.122Z,19.92
2022-08-01T00:41:10.088Z,19.89
2022-08-01T00:42:10.128Z,19.90
2022-08-01T00:43:10.078Z,19.87
2022-08-01T00:44:10.132Z,19.85
2022-08-01T00:45:10.375Z,19.82
2022-08-01T00:46:10.132Z,19.79
2022-08-01T00:47:10.043Z,19.79
2022-08-01T00:48:10.123Z,19.78
2022-08-01T00:49:10.418Z,19.77
2022-08-01T00:50:09.973Z,19.77
2022-08-01T00:51:10.012Z,19.77
2022-08-01T00:52:10.125Z,19.75
2022-08-01T00:53:09.918Z,19.74
2022-08-01T00:54:10.128Z,19.71
2022-08-01T00:55:09.993Z,19.67
2022-08-01T00:56:09.898Z,19.67
2022-08-01T00:57:10.871Z,19.64
2022-08-01T00:58:09.922Z,19.62
2022-08-01T00:59:09.968Z,19.60
2022-08-01T01:00:09.837Z,19.57
2022-08-01T01:01:09.998Z,19.53
2022-08-01T01:02:14.668Z,19.49
2022-08-01T01:03:09.842Z,19.48
2022-08-01T01:04:09.865Z,19.47
2022-08-01T01:05:09.842Z,19.48
2022-08-01T01:06:09.754Z,19.48
2022-08-01T01:07:09.753Z,19.47
2022-08-01T01:08:09.728Z,19.42
2022-08-01T01:09:09.714Z,19.42
2022-08-01T01:10:09.704Z,19.42
2022-08-01T01:11:09.743Z,19.42
2022-08-01T01:12:09.895Z,19.47
2022-08-01T01:13:09.669Z,19.48
2022-08-01T01:14:09.682Z,19.52
2022-08-01T01:15:09.658Z,19.55
2022-08-01T01:16:09.819Z,19.59
2022-08-01T01:17:09.737Z,19.62
2022-08-01T01:18:09.578Z,19.62
2022-08-01T01:19:09.668Z,19.57
2022-08-01T01:20:09.569Z,19.59
2022-08-01T01:21:09.649Z,19.59
2022-08-01T01:22:09.880Z,19.59
2022-08-01T01:23:09.658Z,19.60
2022-08-01T01:24:09.533Z,19.59
2022-08-01T01:25:09.663Z,19.56
2022-08-01T01:26:09.483Z,19.53
2022-08-01T01:27:09.663Z,19.49
2022-08-01T01:28:09.563Z,19.47
2022-08-01T01:29:09.642Z,19.42
2022-08-01T01:30:09.482Z,19.38
2022-08-01T01:31:11.037Z,19.37
2022-08-01T01:32:09.482Z,19.35
2022-08-01T01:33:09.656Z,19.37
2022-08-01T01:34:09.577Z,19.34
2022-08-01T01:35:09.378Z,19.34
2022-08-01T01:36:11.576Z,19.30
2022-08-01T01:37:09.338Z,19.29
2022-08-01T01:38:09.329Z,19.26
2022-08-01T01:39:09.349Z,19.24
2022-08-01T01:40:09.827Z,19.27
2022-08-01T01:41:09.399Z,19.26
2022-08-01T01:42:09.497Z,19.24
2022-08-01T01:43:09.307Z,19.23
2022-08-01T01:44:09.504Z,19.22
2022-08-01T01:45:09.355Z,19.20
2022-08-01T01:46:09.224Z,19.22
2022-08-01T01:47:09.665Z,19.19
2022-08-01T01:48:09.244Z,19.17
2022-08-01T01:49:09.386Z,19.15
2022-08-01T01:50:09.184Z,19.15
2022-08-01T01:51:09.182Z,19.16
2022-08-01T01:52:09.453Z,19.16
2022-08-01T01:53:15.268Z,19.16
2022-08-01T01:54:09.272Z,19.17
2022-08-01T01:55:09.361Z,19.20
2022-08-01T01:56:09.186Z,19.20
2022-08-01T01:57:09.077Z,19.23
2022-08-01T01:58:09.197Z,19.24
2022-08-01T01:59:09.369Z,19.22
2022-08-01T02:00:09.111Z,19.23
2022-08-01T02:01:14.740Z,19.22
2022-08-01T02:02:09.317Z,19.22
2022-08-01T02:03:09.140Z,19.22
2022-08-01T02:04:08.988Z,19.22
2022-08-01T02:05:09.082Z,19.20
2022-08-01T02:06:09.162Z,19.19
2022-08-01T02:07:08.924Z,19.20
2022-08-01T02:08:08.904Z,19.22
2022-08-01T02:09:09.030Z,19.20
2022-08-01T02:10:09.173Z,19.20
2022-08-01T02:11:08.959Z,19.19
2022-08-01T02:12:09.251Z,19.19
2022-08-01T02:13:08.835Z,19.19
2022-08-01T02:14:08.869Z,19.20
2022-08-01T02:15:08.828Z,19.19
2022-08-01T02:16:08.789Z,19.19
2022-08-01T02:17:08.859Z,19.17
2022-08-01T02:18:08.849Z,19.20
2022-08-01T02:19:09.028Z,19.19
2022-08-01T02:20:08.779Z,19.20
2022-08-01T02:21:08.739Z,19.17
2022-08-01T02:22:09.004Z,19.12
2022-08-01T02:23:08.698Z,19.12
2022-08-01T02:24:08.853Z,19.11
2022-08-01T02:25:08.719Z,19.11
2022-08-01T02:26:10.736Z,19.16
2022-08-01T02:27:08.694Z,19.15
2022-08-01T02:28:08.683Z,19.11
2022-08-01T02:29:08.688Z,19.11
2022-08-01T02:30:08.864Z,19.12
2022-08-01T02:31:08.683Z,19.11
2022-08-01T02:32:08.780Z,19.09
2022-08-01T02:33:15.540Z,19.08
2022-08-01T02:34:08.588Z,19.07
2022-08-01T02:35:08.767Z,19.07
2022-08-01T02:36:31.797Z,19.04
2022-08-01T02:37:08.528Z,19.00
2022-08-01T02:38:08.529Z,18.94
2022-08-01T02:39:09.032Z,18.92
2022-08-01T02:40:08.539Z,18.92
2022-08-01T02:41:08.689Z,18.92
2022-08-01T02:42:08.950Z,18.94
2022-08-01T02:43:08.439Z,18.91
2022-08-01T02:44:08.543Z,18.89
2022-08-01T02:45:08.505Z,18.85
2022-08-01T02:46:08.534Z,18.82
2022-08-01T02:47:08.385Z,18.79
2022-08-01T02:48:08.524Z,18.81
2022-08-01T02:49:08.474Z,18.82
2022-08-01T02:50:08.604Z,18.79
2022-08-01T02:51:08.354Z,18.78
2022-08-01T02:52:08.929Z,18.76
2022-08-01T02:53:08.372Z,18.76
2022-08-01T02:54:08.559Z,18.78
2022-08-01T02:55:08.379Z,18.76
2022-08-01T02:56:08.349Z,18.71
2022-08-01T02:57:08.248Z,18.70
2022-08-01T02:58:08.208Z,18.67
2022-08-01T02:59:08.389Z,18.66
2022-08-01T03:00:08.194Z,18.64
2022-08-01T03:01:08.434Z,18.61
2022-08-01T03:02:08.863Z,18.61
2022-08-01T03:03:08.369Z,18.60
2022-08-01T03:04:08.209Z,18.57
2022-08-01T03:05:08.402Z,18.53
2022-08-01T03:06:08.234Z,18.53
2022-08-01T03:07:08.224Z,18.49
2022-08-01T03:08:14.602Z,18.49
2022-08-01T03:09:08.385Z,18.46
2022-08-01T03:10:08.054Z,18.45
2022-08-01T03:11:08.076Z,18.46
2022-08-01T03:12:08.654Z,18.42
2022-08-01T03:13:08.085Z,18.42
2022-08-01T03:14:07.994Z,18.41
2022-08-01T03:15:08.069Z,18.39
2022-08-01T03:16:08.229Z,18.36
2022-08-01T03:17:08.050Z,18.36
2022-08-01T03:18:07.939Z,18.37
2022-08-01T03:19:08.015Z,18.37
2022-08-01T03:20:07.927Z,18.37
2022-08-01T03:21:07.900Z,18.37
2022-08-01T03:22:08.198Z,18.37
2022-08-01T03:23:07.860Z,18.37
2022-08-01T03:24:07.913Z,18.37
2022-08-01T03:25:07.935Z,18.39
2022-08-01T03:26:07.925Z,18.36
2022-08-01T03:27:07.862Z,18.39
2022-08-01T03:28:07.895Z,18.37
2022-08-01T03:29:08.053Z,18.37
2022-08-01T03:30:07.885Z,18.39
2022-08-01T03:31:07.824Z,18.39
2022-08-01T03:32:08.328Z,18.36
2022-08-01T03:33:07.766Z,18.39
2022-08-01T03:34:07.739Z,18.39
2022-08-01T03:35:07.724Z,18.43
2022-08-01T03:36:07.899Z,18.48
2022-08-01T03:37:07.820Z,18.49
2022-08-01T03:38:16.512Z,18.48
2022-08-01T03:39:07.729Z,18.51
2022-08-01T03:40:07.889Z,18.51
2022-08-01T03:41:07.720Z,18.53
2022-08-01T03:42:08.153Z,18.57
2022-08-01T03:43:07.789Z,18.60
2022-08-01T03:44:07.590Z,18.61
2022-08-01T03:45:07.720Z,18.63
2022-08-01T03:46:07.585Z,18.63
2022-08-01T03:47:07.564Z,18.63
2022-08-01T03:48:07.647Z,18.63
2022-08-01T03:49:07.596Z,18.64
2022-08-01T03:50:12.223Z,18.61
2022-08-01T03:51:07.498Z,18.66
2022-08-01T03:52:07.887Z,18.64
2022-08-01T03:53:07.455Z,18.66
2022-08-01T03:54:07.634Z,18.68
2022-08-01T03:55:07.444Z,18.70
2022-08-01T03:56:07.580Z,18.70
2022-08-01T03:57:07.416Z,18.70
2022-08-01T03:58:09.837Z,18.70
2022-08-01T03:59:07.420Z,18.74
2022-08-01T04:00:07.639Z,18.76
2022-08-01T04:01:07.469Z,18.78
2022-08-01T04:02:07.959Z,18.76
2022-08-01T04:03:07.402Z,18.74
2022-08-01T04:04:07.311Z,18.74
2022-08-01T04:05:07.491Z,18.74
2022-08-01T04:06:07.316Z,18.74
2022-08-01T04:07:07.434Z,18.74
2022-08-01T04:08:07.275Z,18.74
2022-08-01T04:09:12.801Z,18.76
2022-08-01T04:10:07.244Z,18.78
2022-08-01T04:11:07.304Z,18.78
2022-08-01T04:12:12.356Z,18.81
2022-08-01T04:13:07.405Z,18.83
2022-08-01T04:14:09.259Z,18.88
2022-08-01T04:15:07.164Z,18.89
2022-08-01T04:16:07.163Z,18.91
2022-08-01T04:17:07.224Z,18.89
2022-08-01T04:18:07.251Z,18.89
2022-08-01T04:19:07.418Z,18.89
2022-08-01T04:20:07.249Z,18.92
2022-08-01T04:21:07.090Z,18.96
2022-08-01T04:22:07.360Z,18.98
2022-08-01T04:23:07.120Z,19.04
2022-08-01T04:24:07.039Z,19.07
2022-08-01T04:25:07.091Z,19.07
2022-08-01T04:26:07.240Z,19.08
2022-08-01T04:27:07.106Z,19.15
2022-08-01T04:28:06.996Z,19.16
2022-08-01T04:29:07.175Z,19.19
2022-08-01T04:30:07.255Z,19.20
2022-08-01T04:31:07.087Z,19.23
2022-08-01T04:32:07.345Z,19.24
2022-08-01T04:33:06.934Z,19.29
2022-08-01T04:34:06.944Z,19.26
2022-08-01T04:35:22.948Z,19.29
2022-08-01T04:36:06.926Z,19.29
2022-08-01T04:37:06.869Z,19.27
2022-08-01T04:38:06.950Z,19.29
2022-08-01T04:39:07.113Z,19.30
2022-08-01T04:40:06.919Z,19.32
2022-08-01T04:41:09.126Z,19.30
2022-08-01T04:42:07.371Z,19.32
2022-08-01T04:43:06.791Z,19.35
2022-08-01T04:44:06.761Z,19.35
2022-08-01T04:45:06.790Z,19.41
2022-08-01T04:46:06.729Z,19.45
2022-08-01T04:47:06.884Z,19.49
2022-08-01T04:48:06.936Z,19.56
2022-08-01T04:49:06.816Z,19.64
2022-08-01T04:50:06.945Z,19.71
2022-08-01T04:51:06.775Z,19.79
2022-08-01T04:52:07.184Z,19.85
2022-08-01T04:53:06.845Z,19.93
2022-08-01T04:54:06.625Z,20.03
2022-08-01T04:55:06.764Z,20.10
2022-08-01T04:56:06.586Z,20.18
2022-08-01T04:57:06.601Z,20.21
2022-08-01T04:58:06.630Z,20.32
2022-08-01T04:59:06.859Z,20.39
2022-08-01T05:00:06.619Z,20.44
2022-08-01T05:01:06.924Z,20.49
2022-08-01T05:02:06.969Z,20.50
2022-08-01T05:03:06.780Z,20.56
2022-08-01T05:04:06.670Z,20.58
2022-08-01T05:05:06.511Z,20.64
2022-08-01T05:06:06.599Z,20.73
2022-08-01T05:07:06.447Z,20.77
2022-08-01T05:08:06.623Z,20.86
2022-08-01T05:09:06.445Z,21.00
2022-08-01T05:10:06.945Z,21.14
2022-08-01T05:11:06.454Z,21.28
2022-08-01T05:12:07.059Z,21.47
2022-08-01T05:13:06.376Z,21.68
2022-08-01T05:14:06.346Z,21.85
2022-08-01T05:15:07.228Z,22.03
2022-08-01T05:16:06.395Z,22.21
2022-08-01T05:17:06.516Z,22.19
2022-08-01T05:18:07.791Z,22.36
2022-08-01T05:19:06.291Z,22.58
2022-08-01T05:20:06.280Z,22.63
2022-08-01T05:21:06.289Z,22.59
2022-08-01T05:22:06.570Z,22.34
2022-08-01T05:23:06.479Z,22.19
2022-08-01T05:24:06.232Z,22.06
2022-08-01T05:25:06.259Z,21.96
2022-08-01T05:26:06.189Z,21.88
2022-08-01T05:27:06.180Z,21.85
2022-08-01T05:28:06.294Z,21.88
2022-08-01T05:29:06.184Z,21.91
2022-08-01T05:30:06.285Z,22.03
2022-08-01T05:31:06.247Z,22.14
2022-08-01T05:32:06.607Z,22.23
2022-08-01T05:33:06.124Z,22.36
2022-08-01T05:34:06.084Z,22.43
2022-08-01T05:35:06.145Z,22.52
2022-08-01T05:36:06.065Z,22.52
2022-08-01T05:37:06.204Z,22.55
2022-08-01T05:38:06.309Z,22.61
2022-08-01T05:39:06.139Z,22.62
2022-08-01T05:40:06.296Z,22.62
2022-08-01T05:41:06.129Z,22.52
2022-08-01T05:42:06.300Z,22.46
2022-08-01T05:43:06.210Z,22.41
2022-08-01T05:44:05.973Z,22.28
2022-08-01T05:45:06.133Z,22.23
2022-08-01T05:46:05.959Z,22.23
2022-08-01T05:47:05.954Z,22.28
2022-08-01T05:48:05.976Z,22.28
2022-08-01T05:49:06.300Z,22.30
2022-08-01T05:50:06.014Z,22.34
2022-08-01T05:51:06.136Z,22.28
2022-08-01T05:52:06.185Z,22.31
2022-08-01T05:53:06.145Z,22.31
2022-08-01T05:54:06.060Z,22.28
2022-08-01T05:55:05.805Z,22.30
2022-08-01T05:56:05.977Z,22.26
2022-08-01T05:57:05.819Z,22.23
2022-08-01T05:58:05.773Z,22.25
2022-08-01T05:59:05.890Z,22.22
2022-08-01T06:00:05.749Z,22.22
2022-08-01T06:01:05.815Z,22.16
2022-08-01T06:02:06.347Z,22.15
2022-08-01T06:03:05.812Z,22.16
2022-08-01T06:04:05.710Z,22.10
2022-08-01T06:05:09.061Z,22.04
2022-08-01T06:06:05.729Z,22.06
2022-08-01T06:07:05.634Z,22.03
2022-08-01T06:08:05.634Z,22.01
2022-08-01T06:09:05.825Z,22.03
2022-08-01T06:10:05.653Z,22.03
2022-08-01T06:11:05.807Z,21.94
2022-08-01T06:12:05.903Z,21.92
2022-08-01T06:13:05.556Z,21.83
2022-08-01T06:14:05.748Z,21.74
2022-08-01T06:15:05.527Z,21.70
2022-08-01T06:16:05.645Z,21.68
2022-08-01T06:17:05.510Z,21.65
2022-08-01T06:18:05.509Z,21.62
2022-08-01T06:19:05.479Z,21.68
2022-08-01T06:20:05.529Z,21.69
2022-08-01T06:21:05.596Z,21.68
2022-08-01T06:22:05.897Z,21.66
2022-08-01T06:23:31.204Z,21.70
2022-08-01T06:24:05.411Z,21.78
2022-08-01T06:25:05.508Z,21.88
2022-08-01T06:26:05.390Z,21.96
2022-08-01T06:27:05.565Z,22.03
2022-08-01T06:28:05.656Z,22.07
2022-08-01T06:29:05.344Z,22.15
2022-08-01T06:30:05.354Z,22.18
2022-08-01T06:31:05.324Z,22.18
2022-08-01T06:32:05.612Z,22.18
2022-08-01T06:33:05.274Z,22.19
2022-08-01T06:34:05.384Z,22.26
2022-08-01T06:35:05.265Z,22.31
2022-08-01T06:36:05.416Z,22.43
2022-08-01T06:37:05.892Z,22.53
2022-08-01T06:38:05.350Z,22.68
2022-08-01T06:39:05.502Z,22.81
2022-08-01T06:40:05.331Z,22.96
2022-08-01T06:41:05.190Z,23.08
2022-08-01T06:42:05.513Z,23.25
2022-08-01T06:43:05.239Z,23.29
2022-08-01T06:44:05.159Z,23.39
2022-08-01T06:45:05.183Z,23.48
2022-08-01T06:46:05.337Z,23.56
2022-08-01T06:47:05.187Z,23.64
2022-08-01T06:48:05.334Z,23.67
2022-08-01T06:49:05.601Z,23.76
2022-08-01T06:50:05.333Z,23.79
2022-08-01T06:51:05.173Z,23.91
2022-08-01T06:52:05.409Z,24.01
2022-08-01T06:53:05.184Z,24.13
2022-08-01T06:54:05.004Z,24.21
2022-08-01T06:55:05.245Z,24.32
2022-08-01T06:56:05.350Z,24.41
2022-08-01T06:57:05.199Z,24.48
2022-08-01T06:58:05.029Z,24.50
2022-08-01T06:59:04.949Z,24.50
2022-08-01T07:00:05.030Z,24.50
2022-08-01T07:01:05.312Z,24.50
2022-08-01T07:02:05.503Z,24.50
2022-08-01T07:03:04.959Z,24.48
2022-08-01T07:04:04.998Z,24.46
2022-08-01T07:05:04.858Z,24.46
2022-08-01T07:06:05.015Z,24.41
2022-08-01T07:07:04.865Z,24.40
2022-08-01T07:08:04.825Z,24.36
2022-08-01T07:09:09.699Z,24.36
2022-08-01T07:10:04.794Z,24.37
2022-08-01T07:11:04.854Z,24.40
2022-08-01T07:12:05.137Z,24.43
2022-08-01T07:13:05.674Z,24.34
2022-08-01T07:14:04.731Z,24.40
2022-08-01T07:15:04.798Z,24.44
2022-08-01T07:16:04.998Z,24.55
2022-08-01T07:17:04.875Z,24.66
2022-08-01T07:18:04.682Z,24.84
2022-08-01T07:19:04.658Z,25.22
2022-08-01T07:20:04.691Z,25.66
2022-08-01T07:21:05.085Z,26.08
2022-08-01T07:22:04.865Z,26.46
2022-08-01T07:23:04.679Z,26.68
2022-08-01T07:24:11.342Z,26.93
2022-08-01T07:25:04.605Z,27.19
2022-08-01T07:26:04.735Z,27.33
2022-08-01T07:27:24.059Z,27.34
2022-08-01T07:28:04.553Z,27.67
2022-08-01T07:29:04.609Z,27.64
2022-08-01T07:30:04.536Z,27.78
2022-08-01T07:31:04.534Z,28.18
2022-08-01T07:32:04.882Z,29.43
2022-08-01T07:33:04.493Z,28.71
2022-08-01T07:34:04.712Z,28.52
2022-08-01T07:35:04.553Z,28.34
2022-08-01T07:36:04.429Z,28.74
2022-08-01T07:37:04.549Z,30.51
2022-08-01T07:38:04.429Z,31.69
2022-08-01T07:39:04.530Z,30.73
2022-08-01T07:40:04.460Z,29.92
2022-08-01T07:41:04.599Z,28.96
2022-08-01T07:42:07.363Z,28.56
2022-08-01T07:43:04.571Z,30.24
2022-08-01T07:44:04.856Z,31.90
2022-08-01T07:45:04.534Z,32.78
2022-08-01T07:46:04.375Z,33.13
2022-08-01T07:47:04.392Z,33.66
2022-08-01T07:48:04.424Z,33.50
2022-08-01T07:49:04.577Z,33.67
2022-08-01T07:50:04.396Z,34.11
2022-08-01T07:51:04.544Z,34.26
2022-08-01T07:52:04.657Z,34.48
2022-08-01T07:53:04.239Z,33.84
2022-08-01T07:54:04.430Z,33.81
2022-08-01T07:55:04.209Z,33.87
2022-08-01T07:56:04.268Z,34.28
2022-08-01T07:57:04.270Z,34.88
2022-08-01T07:58:04.372Z,35.13
2022-08-01T07:59:04.225Z,35.31
2022-08-01T08:00:04.359Z,34.83
2022-08-01T08:01:04.209Z,34.60
2022-08-01T08:02:04.692Z,35.04
2022-08-01T08:03:04.215Z,34.70
2022-08-01T08:04:04.377Z,34.35
2022-08-01T08:05:04.230Z,34.29
2022-08-01T08:06:04.064Z,33.28
2022-08-01T08:07:04.709Z,32.26
2022-08-01T08:08:04.124Z,32.09
2022-08-01T08:09:04.241Z,31.81
2022-08-01T08:10:04.044Z,31.35
2022-08-01T08:11:04.240Z,31.44
2022-08-01T08:12:04.492Z,31.23
2022-08-01T08:13:03.971Z,31.47
2022-08-01T08:14:04.128Z,30.96
2022-08-01T08:15:04.198Z,30.48
2022-08-01T08:16:04.059Z,30.26
2022-08-01T08:17:03.920Z,30.17
2022-08-01T08:18:04.049Z,30.23
2022-08-01T08:19:03.888Z,30.23
2022-08-01T08:20:04.123Z,30.13
2022-08-01T08:21:06.762Z,29.68
2022-08-01T08:22:04.262Z,29.52
2022-08-01T08:23:03.853Z,29.57
2022-08-01T08:24:04.043Z,30.86
2022-08-01T08:25:03.914Z,30.71
2022-08-01T08:26:03.794Z,30.95
2022-08-01T08:27:03.954Z,30.83
2022-08-01T08:28:03.779Z,30.88
2022-08-01T08:29:03.867Z,31.73
2022-08-01T08:30:03.758Z,31.78
2022-08-01T08:31:03.899Z,32.07
2022-08-01T08:32:03.858Z,31.18
2022-08-01T08:33:03.718Z,30.55
2022-08-01T08:34:03.729Z,29.86
2022-08-01T08:35:03.770Z,29.57
2022-08-01T08:36:03.683Z,29.06
2022-08-01T08:37:03.664Z,28.78
2022-08-01T08:38:03.693Z,28.70
2022-08-01T08:39:03.624Z,28.62
2022-08-01T08:40:03.617Z,28.56
2022-08-01T08:41:03.694Z,28.43
2022-08-01T08:42:04.225Z,28.34
2022-08-01T08:43:03.585Z,28.71
2022-08-01T08:44:03.574Z,28.93
2022-08-01T08:45:03.565Z,29.03
2022-08-01T08:46:03.758Z,29.09
2022-08-01T08:47:03.576Z,29.22
2022-08-01T08:48:03.578Z,28.96
2022-08-01T08:49:03.642Z,28.94
2022-08-01T08:50:03.749Z,29.02
2022-08-01T08:51:03.575Z,29.09
2022-08-01T08:52:03.737Z,28.97
2022-08-01T08:53:03.558Z,28.97
2022-08-01T08:54:03.499Z,28.94
2022-08-01T08:55:03.574Z,29.00
2022-08-01T08:56:03.414Z,29.03
2022-08-01T08:57:03.574Z,29.00
2022-08-01T08:58:03.404Z,28.97
2022-08-01T08:59:03.374Z,29.00
2022-08-01T09:00:03.434Z,28.92
2022-08-01T09:01:03.563Z,28.86
2022-08-01T09:02:03.403Z,28.75
2022-08-01T09:03:03.445Z,28.70
2022-08-01T09:04:03.419Z,28.77
2022-08-01T09:05:03.319Z,28.75
2022-08-01T09:06:03.369Z,28.80
2022-08-01T09:07:03.578Z,28.47
2022-08-01T09:08:03.410Z,28.64
2022-08-01T09:09:03.258Z,28.62
2022-08-01T09:10:03.219Z,28.47
2022-08-01T09:11:03.229Z,28.33
2022-08-01T09:12:03.480Z,28.35
2022-08-01T09:13:03.244Z,28.28
2022-08-01T09:14:03.426Z,28.28
2022-08-01T09:15:03.254Z,28.30
2022-08-01T09:16:03.153Z,28.33
2022-08-01T09:17:03.343Z,28.50
2022-08-01T09:18:03.405Z,28.56
2022-08-01T09:19:03.255Z,28.65
2022-08-01T09:20:03.086Z,28.74
2022-08-01T09:21:03.064Z,28.65
2022-08-01T09:22:03.297Z,28.71
2022-08-01T09:23:03.328Z,29.16
2022-08-01T09:24:03.032Z,29.47
2022-08-01T09:25:03.275Z,29.77
2022-08-01T09:26:03.079Z,29.98
2022-08-01T09:27:03.260Z,30.23
2022-08-01T09:28:03.089Z,30.06
2022-08-01T09:29:03.319Z,30.16
2022-08-01T09:30:03.079Z,30.17
2022-08-01T09:31:02.999Z,30.38
2022-08-01T09:32:03.063Z,30.96
2022-08-01T09:33:11.527Z,30.95
2022-08-01T09:34:03.076Z,30.71
2022-08-01T09:35:02.955Z,30.48
2022-08-01T09:36:02.894Z,30.43
2022-08-01T09:37:02.867Z,30.58
2022-08-01T09:38:02.844Z,30.55
2022-08-01T09:39:02.835Z,30.17
2022-08-01T09:40:02.834Z,29.80
2022-08-01T09:41:02.899Z,29.53
2022-08-01T09:42:02.800Z,29.25
2022-08-01T09:43:03.104Z,28.93
2022-08-01T09:44:02.789Z,29.39
2022-08-01T09:45:02.770Z,30.18
2022-08-01T09:46:03.108Z,29.96
2022-08-01T09:47:07.806Z,29.65
2022-08-01T09:48:02.791Z,29.42
2022-08-01T09:49:02.785Z,29.21
2022-08-01T09:50:06.287Z,28.97
2022-08-01T09:51:07.375Z,29.20
2022-08-01T09:52:02.860Z,30.51
2022-08-01T09:53:02.683Z,30.02
2022-08-01T09:54:02.775Z,29.73
2022-08-01T09:55:02.626Z,30.36
2022-08-01T09:56:02.775Z,31.30
2022-08-01T09:57:02.661Z,32.12
2022-08-01T09:58:02.850Z,32.97
2022-08-01T09:59:03.009Z,33.17
2022-08-01T10:00:02.980Z,33.39
2022-08-01T10:01:02.632Z,33.61
2022-08-01T10:02:02.780Z,33.55
2022-08-01T10:03:10.232Z,33.82
2022-08-01T10:04:02.653Z,33.73
2022-08-01T10:05:03.656Z,32.82
2022-08-01T10:06:02.487Z,32.64
2022-08-01T10:07:02.650Z,32.67
2022-08-01T10:08:02.534Z,32.95
2022-08-01T10:09:02.614Z,33.03
2022-08-01T10:10:02.453Z,33.12
2022-08-01T10:11:02.733Z,32.95
2022-08-01T10:12:02.471Z,33.15
2022-08-01T10:13:03.333Z,33.53
2022-08-01T10:14:02.448Z,33.98
2022-08-01T10:15:02.380Z,34.00
2022-08-01T10:16:02.468Z,33.79
2022-08-01T10:17:05.126Z,33.92
2022-08-01T10:18:02.504Z,34.06
2022-08-01T10:19:02.319Z,33.98
2022-08-01T10:20:02.460Z,34.07
2022-08-01T10:21:02.299Z,34.22
2022-08-01T10:22:02.291Z,34.46
2022-08-01T10:23:06.191Z,34.18
2022-08-01T10:24:03.249Z,34.24
2022-08-01T10:25:02.395Z,34.69
2022-08-01T10:26:02.455Z,34.37
2022-08-01T10:27:06.136Z,34.37
2022-08-01T10:28:02.497Z,34.41
2022-08-01T10:29:02.303Z,34.33
2022-08-01T10:30:08.624Z,34.69
2022-08-01T10:31:02.375Z,34.79
2022-08-01T10:32:02.460Z,34.76
2022-08-01T10:33:02.309Z,33.63
2022-08-01T10:34:02.154Z,34.33
2022-08-01T10:35:06.632Z,34.40
2022-08-01T10:36:02.108Z,34.09
2022-08-01T10:37:02.188Z,34.02
2022-08-01T10:38:02.153Z,34.03
2022-08-01T10:39:02.288Z,34.22
2022-08-01T10:40:28.904Z,33.44
2022-08-01T10:41:02.084Z,33.01
2022-08-01T10:42:02.034Z,31.82
2022-08-01T10:43:02.056Z,30.88
2022-08-01T10:44:02.086Z,30.65
2022-08-01T10:45:02.107Z,30.17
2022-08-01T10:46:01.984Z,30.13
2022-08-01T10:47:01.965Z,31.28
2022-08-01T10:48:02.097Z,32.31
2022-08-01T10:49:02.075Z,32.46
2022-08-01T10:50:01.939Z,31.67
2022-08-01T10:51:02.070Z,31.00
2022-08-01T10:52:01.910Z,30.59
2022-08-01T10:53:08.865Z,30.10
2022-08-01T10:54:01.910Z,29.99
2022-08-01T10:55:01.872Z,30.83
2022-08-01T10:56:02.896Z,31.51
2022-08-01T10:57:02.054Z,32.09
2022-08-01T10:58:01.844Z,32.78
2022-08-01T10:59:01.997Z,33.12
2022-08-01T11:00:01.991Z,33.44
2022-08-01T11:01:01.878Z,33.70
2022-08-01T11:02:01.915Z,33.88
2022-08-01T11:03:01.848Z,34.13
2022-08-01T11:04:02.126Z,33.94
2022-08-01T11:05:01.983Z,32.88
2022-08-01T11:06:01.807Z,31.92
2022-08-01T11:07:01.991Z,31.37
2022-08-01T11:08:01.809Z,30.59
2022-08-01T11:09:02.046Z,29.81
2022-08-01T11:10:01.890Z,29.30
2022-08-01T11:11:01.670Z,30.36
2022-08-01T11:12:01.799Z,30.29
2022-08-01T11:13:01.648Z,29.96
2022-08-01T11:14:01.809Z,29.74
2022-08-01T11:15:02.390Z,29.71
2022-08-01T11:16:06.073Z,29.92
2022-08-01T11:17:01.655Z,30.38
2022-08-01T11:18:01.903Z,30.23
2022-08-01T11:19:01.666Z,29.98
2022-08-01T11:20:01.566Z,29.67
2022-08-01T11:21:59.232Z,29.35
2022-08-01T11:22:04.789Z,29.06
2022-08-01T11:23:02.016Z,28.87
2022-08-01T11:24:01.518Z,28.67
2022-08-01T11:25:01.650Z,28.65
2022-08-01T11:26:05.227Z,28.53
2022-08-01T11:27:01.649Z,28.25
2022-08-01T11:28:01.489Z,28.22
2022-08-01T11:29:19.342Z,28.34
2022-08-01T11:30:01.488Z,28.33
2022-08-01T11:31:01.408Z,28.30
2022-08-01T11:32:01.577Z,28.30
2022-08-01T11:33:10.366Z,28.33
2022-08-01T11:34:03.535Z,28.25
2022-08-01T11:35:01.695Z,28.13
2022-08-01T11:36:01.500Z,27.81
2022-08-01T11:37:01.319Z,27.81
2022-08-01T11:38:01.545Z,27.60
2022-08-01T11:39:01.496Z,27.57
2022-08-01T11:40:01.267Z,27.63
2022-08-01T11:41:01.348Z,27.75
2022-08-01T11:42:01.279Z,27.85
2022-08-01T11:43:01.350Z,28.16
2022-08-01T11:44:01.309Z,28.50
2022-08-01T11:45:01.328Z,28.45
2022-08-01T11:46:01.209Z,28.27
2022-08-01T11:47:01.202Z,28.22
2022-08-01T11:48:01.179Z,28.13
2022-08-01T11:49:01.259Z,28.00
2022-08-01T11:50:01.243Z,27.93
2022-08-01T11:51:02.213Z,27.71
2022-08-01T11:52:01.195Z,27.55
2022-08-01T11:53:01.125Z,27.44
2022-08-01T11:54:01.094Z,27.93
2022-08-01T11:55:01.116Z,29.35
2022-08-01T11:56:01.134Z,30.58
2022-08-01T11:57:01.084Z,30.93
2022-08-01T11:58:01.197Z,31.97
2022-08-01T11:59:01.079Z,32.46
2022-08-01T12:00:04.282Z,31.85
2022-08-01T12:01:01.058Z,31.32
2022-08-01T12:02:01.129Z,31.78
2022-08-01T12:03:01.164Z,31.73
2022-08-01T12:04:00.993Z,30.99
2022-08-01T12:05:01.030Z,30.21
2022-08-01T12:06:01.169Z,29.58
2022-08-01T12:07:01.019Z,29.25
2022-08-01T12:08:00.957Z,29.05
2022-08-01T12:09:01.004Z,29.18
2022-08-01T12:10:00.934Z,29.22
2022-08-01T12:11:02.541Z,29.10
2022-08-01T12:12:00.884Z,29.20
2022-08-01T12:13:01.025Z,29.18
2022-08-01T12:14:00.868Z,29.06
2022-08-01T12:15:01.088Z,28.87
2022-08-01T12:16:00.865Z,28.78
2022-08-01T12:17:01.024Z,28.60
2022-08-01T12:18:00.846Z,28.27
2022-08-01T12:19:01.023Z,28.12
2022-08-01T12:20:00.850Z,28.01
2022-08-01T12:21:01.081Z,27.85
2022-08-01T12:22:00.840Z,27.60
2022-08-01T12:23:01.019Z,27.41
2022-08-01T12:24:00.849Z,27.29
2022-08-01T12:25:00.719Z,27.33
2022-08-01T12:26:00.853Z,27.35
2022-08-01T12:27:00.786Z,27.30
2022-08-01T12:28:00.854Z,27.26
2022-08-01T12:29:00.694Z,27.45
2022-08-01T12:30:02.250Z,27.71
2022-08-01T12:31:00.684Z,27.82
2022-08-01T12:32:00.854Z,28.12
2022-08-01T12:33:00.787Z,28.30
2022-08-01T12:34:00.586Z,28.33
2022-08-01T12:35:00.691Z,28.38
2022-08-01T12:36:00.597Z,28.38
2022-08-01T12:37:00.702Z,28.28
2022-08-01T12:38:00.528Z,28.22
2022-08-01T12:39:00.799Z,28.25
2022-08-01T12:40:00.520Z,28.27
2022-08-01T12:41:00.490Z,28.22
2022-08-01T12:42:00.521Z,28.22
2022-08-01T12:43:00.469Z,28.19
2022-08-01T12:44:00.473Z,28.16
2022-08-01T12:45:00.794Z,28.19
2022-08-01T12:46:01.042Z,28.25
2022-08-01T12:47:00.435Z,28.18
2022-08-01T12:48:00.591Z,28.13
2022-08-01T12:49:00.754Z,28.09
2022-08-01T12:50:00.386Z,28.03
2022-08-01T12:51:00.436Z,27.97
2022-08-01T12:52:00.354Z,27.86